Simcha — PE7688 — position and weather

sailwx.info

Track history (hours):
 
Tides and Currents Weather Stations Pressure Air Temp Water Temp Dewpoint Dewpoint Depression Visibility Wind Speed Wind Dir Waves Ship Positions

Simcha

Last reported at 2017-Mar-22 16:33 UTC. Time now 2017-Mar-23 02:14 UTC.
Position N 51°09' E 006°48'.

Length 110 m.

Type: Ship. MMSI: 244780014.

Date/timePositionNaut miles runAvg speedWind from/ knotsBaromVisibWave heightAir tempDewpointWater temp
2017-Mar-22 16:33N 51°09' E 006°48'3 3.2
2017-Mar-22 15:33N 51°11' E 006°44'3 2.6
2017-Mar-22 14:24N 51°14' E 006°46'12 3.1
2017-Mar-22 10:32N 51°26' E 006°43'4 3.8
2017-Mar-22 09:33N 51°29' E 006°41'10 3.2
2017-Mar-22 06:28N 51°39' E 006°36'9 0.9
2017-Mar-21 20:13N 51°45' E 006°25'4 4.8
2017-Mar-21 19:24N 51°46' E 006°20'4 5.0
2017-Mar-21 18:33N 51°49' E 006°15'5 5.0
2017-Mar-21 17:33N 51°51' E 006°07'4 4.3
2017-Mar-21 16:33N 51°53' E 006°02'5 5.1
2017-Mar-21 15:33N 51°57' E 005°57'4 3.7
2017-Mar-21 14:33N 51°60' E 006°02'3 3.0
2017-Mar-21 13:29N 52°00' E 006°07'3 3.7
2017-Mar-21 12:33N 52°04' E 006°08'10 2.0
2017-Mar-21 07:33N 52°10' E 006°21'8 5.3
2017-Mar-21 06:03N 52°13' E 006°33'2 5.0
2017-Mar-21 05:33N 52°14' E 006°37'6 0.6
2017-Mar-20 18:33N 52°15' E 006°47'0 0.4
2017-Mar-20 17:34N 52°15' E 006°48'0 0.1
2017-Mar-20 16:32N 52°15' E 006°48'0 0.0
2017-Mar-20 15:33N 52°15' E 006°48'0 0.0
2017-Mar-20 14:33N 52°15' E 006°48'0 0.0
2017-Mar-20 13:30N 52°15' E 006°48'7 3.4
2017-Mar-20 11:33N 52°14' E 006°37'8 5.8
2017-Mar-20 10:14N 52°10' E 006°26'5 7.0
2017-Mar-20 09:32N 52°10' E 006°19'5 3.3
2017-Mar-20 08:08N 52°08' E 006°11'4 6.3
2017-Mar-20 07:32N 52°05' E 006°10'6 6.2
2017-Mar-20 06:33N 52°01' E 006°03'7 7.0
2017-Mar-20 05:33N 51°54' E 006°01'1010.2
2017-Mar-20 04:33N 51°49' E 006°16'6 5.6
2017-Mar-20 03:33N 51°45' E 006°23'0 0.0
2017-Mar-20 02:33N 51°45' E 006°23'0 0.0
2017-Mar-20 01:31N 51°45' E 006°23'0 0.0
2017-Mar-20 00:33N 51°45' E 006°23'0 0.0
2017-Mar-19 23:06N 51°45' E 006°23'0 0.4
2017-Mar-19 22:29N 51°45' E 006°23'8 8.7
2017-Mar-19 21:33N 51°40' E 006°33'8 7.6
2017-Mar-19 20:32N 51°34' E 006°41'8 8.2
2017-Mar-19 19:33N 51°26' E 006°43'15 7.4
2017-Mar-19 17:33N 51°11' E 006°44'3 0.1
2017-Mar-18 13:32N 51°10' E 006°48'4 4.4
2017-Mar-18 12:33N 51°13' E 006°43'11 3.2
2017-Mar-18 09:05N 51°24' E 006°45'3 5.3
2017-Mar-18 08:33N 51°27' E 006°43'2 2.0
2017-Mar-18 07:33N 51°28' E 006°41'9 2.6
2017-Mar-18 04:08N 51°37' E 006°35'0 0.0
2017-Mar-18 02:26N 51°37' E 006°35'0 0.0
2017-Mar-17 23:30N 51°37' E 006°35'0 0.0
2017-Mar-17 22:26N 51°37' E 006°35'3 3.1
2017-Mar-17 21:33N 51°40' E 006°35'9 4.7
2017-Mar-17 19:33N 51°45' E 006°23'6 5.9
2017-Mar-17 18:33N 51°49' E 006°16'6 5.8
2017-Mar-17 17:33N 51°51' E 006°07'5 5.0
2017-Mar-17 16:33N 51°54' E 006°01'4 4.4
2017-Mar-17 15:33N 51°58' E 005°58'4 4.3
2017-Mar-17 14:33N 52°01' E 006°04'2 2.2
2017-Mar-17 13:33N 52°02' E 006°07'5 4.5
2017-Mar-17 12:23N 52°06' E 006°13'5 1.3
2017-Mar-17 08:28N 52°10' E 006°18'4 4.1
2017-Mar-17 07:32N 52°10' E 006°24'6 4.0
2017-Mar-17 06:09N 52°13' E 006°32'3 4.9
2017-Mar-17 05:33N 52°14' E 006°37'6 0.6
2017-Mar-16 20:32N 52°15' E 006°46'1 1.4
2017-Mar-16 19:32N 52°15' E 006°48'0 0.0
2017-Mar-16 18:33N 52°15' E 006°48'0 0.0
2017-Mar-16 17:33N 52°15' E 006°48'0 0.0
2017-Mar-16 16:32N 52°15' E 006°48'0 0.3
2017-Mar-16 15:32N 52°15' E 006°47'0 0.0
2017-Mar-16 14:33N 52°15' E 006°47'1 0.8
2017-Mar-16 13:33N 52°15' E 006°46'13 4.2
2017-Mar-16 10:27N 52°10' E 006°26'9 4.3
2017-Mar-16 08:15N 52°09' E 006°11'4 5.3
2017-Mar-16 07:33N 52°05' E 006°10'6 5.7
2017-Mar-16 06:33N 52°01' E 006°04'7 6.6
2017-Mar-16 05:33N 51°55' E 005°59'2 1.5
2017-Mar-16 04:33N 51°54' E 006°01'0 0.0
2017-Mar-16 03:33N 51°54' E 006°01'0 0.0
2017-Mar-16 02:33N 51°54' E 006°01'0 0.0
2017-Mar-16 01:33N 51°54' E 006°01'0 0.0
2017-Mar-16 00:33N 51°54' E 006°01'0 0.0
2017-Mar-15 23:33N 51°54' E 006°01'0 0.0
2017-Mar-15 22:33N 51°54' E 006°01'0 0.0
2017-Mar-15 21:33N 51°54' E 006°01'4 4.4
2017-Mar-15 20:33N 51°51' E 006°06'1010.2
2017-Mar-15 19:31N 51°46' E 006°20'9 8.8
2017-Mar-15 18:31N 51°40' E 006°31'15 7.5
2017-Mar-15 16:33N 51°27' E 006°43'1 0.1
2017-Mar-14 19:33N 51°26' E 006°43'2 1.5
2017-Mar-14 18:33N 51°27' E 006°44'1 1.4
2017-Mar-14 17:33N 51°28' E 006°42'9 3.6
2017-Mar-14 15:08N 51°36' E 006°36'3 5.2
2017-Mar-14 14:33N 51°39' E 006°36'9 4.4
2017-Mar-14 12:27N 51°45' E 006°25'4 5.0
2017-Mar-14 11:33N 51°48' E 006°19'6 5.6
2017-Mar-14 10:33N 51°50' E 006°11'3 3.3
2017-Mar-14 09:33N 51°51' E 006°06'2 2.3
2017-Mar-14 08:33N 51°52' E 006°03'3 2.5
2017-Mar-14 07:33N 51°54' E 006°00'4 4.1
2017-Mar-14 06:31N 51°58' E 005°59'4 4.3
2017-Mar-14 05:33N 52°01' E 006°04'2 2.2
2017-Mar-14 04:33N 52°02' E 006°07'10 3.0
2017-Mar-14 01:06N 52°10' E 006°18'3 5.8
2017-Mar-14 00:32N 52°10' E 006°23'6 4.7
2017-Mar-13 23:10N 52°13' E 006°32'3 4.7
2017-Mar-13 22:33N 52°14' E 006°37'6 3.0
2017-Mar-13 20:33N 52°15' E 006°46'1 0.9
2017-Mar-13 19:32N 52°15' E 006°48'0 0.0
2017-Mar-13 18:32N 52°15' E 006°48'0 0.0
2017-Mar-13 17:33N 52°15' E 006°48'0 0.0
2017-Mar-13 16:33N 52°15' E 006°48'7 3.3
2017-Mar-13 14:33N 52°14' E 006°37'8 6.5
2017-Mar-13 13:17N 52°10' E 006°25'10 2.1
2017-Mar-13 08:33N 52°05' E 006°11'7 6.6
2017-Mar-13 07:33N 51°60' E 006°05'6 5.9
2017-Mar-13 06:33N 51°56' E 005°58'1110.6
2017-Mar-13 05:33N 51°50' E 006°13'3 0.5
2017-Mar-12 22:28N 51°48' E 006°18'11 9.3
2017-Mar-12 21:17N 51°40' E 006°29'6 8.1
2017-Mar-12 20:33N 51°36' E 006°36'8 7.9
2017-Mar-12 19:33N 51°28' E 006°41'17 8.4
2017-Mar-12 17:33N 51°12' E 006°44'  
Track history (hours):
 
Tides and Currents Weather Stations Pressure Air Temp Water Temp Dewpoint Dewpoint Depression Visibility Wind Speed Wind Dir Waves Ship Positions

Simcha

Last reported at 2017-Mar-22 16:33 UTC. Time now 2017-Mar-23 02:14 UTC.
Position N 51°09' E 006°48'.

Length 110 m.

Type: Ship. MMSI: 244780014.

Date/timePositionNaut miles runAvg speedWind from/ knotsBaromVisibWave heightAir tempDewpointWater temp
2017-Mar-22 16:33N 51°09' E 006°48'3 3.2
2017-Mar-22 15:33N 51°11' E 006°44'3 2.6
2017-Mar-22 14:24N 51°14' E 006°46'12 3.1
2017-Mar-22 10:32N 51°26' E 006°43'4 3.8
2017-Mar-22 09:33N 51°29' E 006°41'10 3.2
2017-Mar-22 06:28N 51°39' E 006°36'9 0.9
2017-Mar-21 20:13N 51°45' E 006°25'4 4.8
2017-Mar-21 19:24N 51°46' E 006°20'4 5.0
2017-Mar-21 18:33N 51°49' E 006°15'5 5.0
2017-Mar-21 17:33N 51°51' E 006°07'4 4.3
2017-Mar-21 16:33N 51°53' E 006°02'5 5.1
2017-Mar-21 15:33N 51°57' E 005°57'4 3.7
2017-Mar-21 14:33N 51°60' E 006°02'3 3.0
2017-Mar-21 13:29N 52°00' E 006°07'3 3.7
2017-Mar-21 12:33N 52°04' E 006°08'10 2.0
2017-Mar-21 07:33N 52°10' E 006°21'8 5.3
2017-Mar-21 06:03N 52°13' E 006°33'2 5.0
2017-Mar-21 05:33N 52°14' E 006°37'6 0.6
2017-Mar-20 18:33N 52°15' E 006°47'0 0.4
2017-Mar-20 17:34N 52°15' E 006°48'0 0.1
2017-Mar-20 16:32N 52°15' E 006°48'0 0.0
2017-Mar-20 15:33N 52°15' E 006°48'0 0.0
2017-Mar-20 14:33N 52°15' E 006°48'0 0.0
2017-Mar-20 13:30N 52°15' E 006°48'7 3.4
2017-Mar-20 11:33N 52°14' E 006°37'8 5.8
2017-Mar-20 10:14N 52°10' E 006°26'5 7.0
2017-Mar-20 09:32N 52°10' E 006°19'5 3.3
2017-Mar-20 08:08N 52°08' E 006°11'4 6.3
2017-Mar-20 07:32N 52°05' E 006°10'6 6.2
2017-Mar-20 06:33N 52°01' E 006°03'7 7.0
2017-Mar-20 05:33N 51°54' E 006°01'1010.2
2017-Mar-20 04:33N 51°49' E 006°16'6 5.6
2017-Mar-20 03:33N 51°45' E 006°23'0 0.0
2017-Mar-20 02:33N 51°45' E 006°23'0 0.0
2017-Mar-20 01:31N 51°45' E 006°23'0 0.0
2017-Mar-20 00:33N 51°45' E 006°23'0 0.0
2017-Mar-19 23:06N 51°45' E 006°23'0 0.4
2017-Mar-19 22:29N 51°45' E 006°23'8 8.7
2017-Mar-19 21:33N 51°40' E 006°33'8 7.6
2017-Mar-19 20:32N 51°34' E 006°41'8 8.2
2017-Mar-19 19:33N 51°26' E 006°43'15 7.4
2017-Mar-19 17:33N 51°11' E 006°44'3 0.1
2017-Mar-18 13:32N 51°10' E 006°48'4 4.4
2017-Mar-18 12:33N 51°13' E 006°43'11 3.2
2017-Mar-18 09:05N 51°24' E 006°45'3 5.3
2017-Mar-18 08:33N 51°27' E 006°43'2 2.0
2017-Mar-18 07:33N 51°28' E 006°41'9 2.6
2017-Mar-18 04:08N 51°37' E 006°35'0 0.0
2017-Mar-18 02:26N 51°37' E 006°35'0 0.0
2017-Mar-17 23:30N 51°37' E 006°35'0 0.0
2017-Mar-17 22:26N 51°37' E 006°35'3 3.1
2017-Mar-17 21:33N 51°40' E 006°35'9 4.7
2017-Mar-17 19:33N 51°45' E 006°23'6 5.9
2017-Mar-17 18:33N 51°49' E 006°16'6 5.8
2017-Mar-17 17:33N 51°51' E 006°07'5 5.0
2017-Mar-17 16:33N 51°54' E 006°01'4 4.4
2017-Mar-17 15:33N 51°58' E 005°58'4 4.3
2017-Mar-17 14:33N 52°01' E 006°04'2 2.2
2017-Mar-17 13:33N 52°02' E 006°07'5 4.5
2017-Mar-17 12:23N 52°06' E 006°13'5 1.3
2017-Mar-17 08:28N 52°10' E 006°18'4 4.1
2017-Mar-17 07:32N 52°10' E 006°24'6 4.0
2017-Mar-17 06:09N 52°13' E 006°32'3 4.9
2017-Mar-17 05:33N 52°14' E 006°37'6 0.6
2017-Mar-16 20:32N 52°15' E 006°46'1 1.4
2017-Mar-16 19:32N 52°15' E 006°48'0 0.0
2017-Mar-16 18:33N 52°15' E 006°48'0 0.0
2017-Mar-16 17:33N 52°15' E 006°48'0 0.0
2017-Mar-16 16:32N 52°15' E 006°48'0 0.3
2017-Mar-16 15:32N 52°15' E 006°47'0 0.0
2017-Mar-16 14:33N 52°15' E 006°47'1 0.8
2017-Mar-16 13:33N 52°15' E 006°46'13 4.2
2017-Mar-16 10:27N 52°10' E 006°26'9 4.3
2017-Mar-16 08:15N 52°09' E 006°11'4 5.3
2017-Mar-16 07:33N 52°05' E 006°10'6 5.7
2017-Mar-16 06:33N 52°01' E 006°04'7 6.6
2017-Mar-16 05:33N 51°55' E 005°59'2 1.5
2017-Mar-16 04:33N 51°54' E 006°01'0 0.0
2017-Mar-16 03:33N 51°54' E 006°01'0 0.0
2017-Mar-16 02:33N 51°54' E 006°01'0 0.0
2017-Mar-16 01:33N 51°54' E 006°01'0 0.0
2017-Mar-16 00:33N 51°54' E 006°01'0 0.0
2017-Mar-15 23:33N 51°54' E 006°01'0 0.0
2017-Mar-15 22:33N 51°54' E 006°01'0 0.0
2017-Mar-15 21:33N 51°54' E 006°01'4 4.4
2017-Mar-15 20:33N 51°51' E 006°06'1010.2
2017-Mar-15 19:31N 51°46' E 006°20'9 8.8
2017-Mar-15 18:31N 51°40' E 006°31'15 7.5
2017-Mar-15 16:33N 51°27' E 006°43'1 0.1
2017-Mar-14 19:33N 51°26' E 006°43'2 1.5
2017-Mar-14 18:33N 51°27' E 006°44'1 1.4
2017-Mar-14 17:33N 51°28' E 006°42'9 3.6
2017-Mar-14 15:08N 51°36' E 006°36'3 5.2
2017-Mar-14 14:33N 51°39' E 006°36'9 4.4
2017-Mar-14 12:27N 51°45' E 006°25'4 5.0
2017-Mar-14 11:33N 51°48' E 006°19'6 5.6
2017-Mar-14 10:33N 51°50' E 006°11'3 3.3
2017-Mar-14 09:33N 51°51' E 006°06'2 2.3
2017-Mar-14 08:33N 51°52' E 006°03'3 2.5
2017-Mar-14 07:33N 51°54' E 006°00'4 4.1
2017-Mar-14 06:31N 51°58' E 005°59'4 4.3
2017-Mar-14 05:33N 52°01' E 006°04'2 2.2
2017-Mar-14 04:33N 52°02' E 006°07'10 3.0
2017-Mar-14 01:06N 52°10' E 006°18'3 5.8
2017-Mar-14 00:32N 52°10' E 006°23'6 4.7
2017-Mar-13 23:10N 52°13' E 006°32'3 4.7
2017-Mar-13 22:33N 52°14' E 006°37'6 3.0
2017-Mar-13 20:33N 52°15' E 006°46'1 0.9
2017-Mar-13 19:32N 52°15' E 006°48'0 0.0
2017-Mar-13 18:32N 52°15' E 006°48'0 0.0
2017-Mar-13 17:33N 52°15' E 006°48'0 0.0
2017-Mar-13 16:33N 52°15' E 006°48'7 3.3
2017-Mar-13 14:33N 52°14' E 006°37'8 6.5
2017-Mar-13 13:17N 52°10' E 006°25'10 2.1
2017-Mar-13 08:33N 52°05' E 006°11'7 6.6
2017-Mar-13 07:33N 51°60' E 006°05'6 5.9
2017-Mar-13 06:33N 51°56' E 005°58'1110.6
2017-Mar-13 05:33N 51°50' E 006°13'3 0.5
2017-Mar-12 22:28N 51°48' E 006°18'11 9.3
2017-Mar-12 21:17N 51°40' E 006°29'6 8.1
2017-Mar-12 20:33N 51°36' E 006°36'8 7.9
2017-Mar-12 19:33N 51°28' E 006°41'17 8.4
2017-Mar-12 17:33N 51°12' E 006°44'  

Dump ship's entire track history